Fire Weather Observation
Issued by NWS Grand Junction, CO

Home | Current Version | Previous Version | Graphics & Text | Print | Product List | Glossary On
Versions: 1 2 3 4 5 6 7 8 9 10 11 12 13 14 15 16 17 18 19 20 21 22 23 24 25 26 27 28 29 30 31 32 33 34 35 36 37 38 39 40 41 42 43 44 45 46 47 48 49 50
000
SHUS65 KGJT 292020
FWOGJT

DAILY FIRE WEATHER OBSERVATION
NATIONAL WEATHER SERVICE GRAND JUNCTION CO
220 PM MDT TUE JUL 29 2014

STATE OF THE WEATHER (W)               2
DRY BULB TEMPERATURE                   73   DEGREES FAHRENHEIT
RELATIVE HUMIDITY (RH)                 59   PERCENT
LIGHTNING ACTIVITY LEVEL
  (LAL - MIDNIGHT TO 2 PM)             4
WIND DIRECTION                         225  DEGREES (C IF CALM)
WIND SPEED                             5    MPH
MAX TEMP (2 PM - 2 PM)                 87   DEGREES FAHRENHEIT
MIN TEMP (2 PM - 2 PM)                 61   DEGREES FAHRENHEIT
MAX RH (2 PM - 2 PM)                   100  PERCENT
MIN RH (2 PM - 2 PM)                   31   PERCENT
PCPN DURATION                          4.2  HOURS
PCPN AMT (2 PM - 2 PM)                 0.76 INCHES
LAL (2 PM - 2 PM)                      5

$$

METAR KGJT 291953Z 24004KT 10SM CLR 23/14 A3022 RMK AO2 LTG DSNT
      S-NW SLP175 T02280144


USA.gov is the U.S. government's official web portal to all federal, state and local government web resources and services.